createdAt,value
2023-01-05T00:01:39.998Z,103076.50
2023-01-05T00:04:14.427Z,103073.16
2023-01-05T00:06:42.868Z,103069.50
2023-01-05T00:09:12.308Z,103068.53
2023-01-05T00:12:01.014Z,103071.81
2023-01-05T00:14:48.969Z,103065.66
2023-01-05T00:17:42.141Z,103065.22
2023-01-05T00:20:36.274Z,103063.22
2023-01-05T00:23:04.210Z,103059.56
2023-01-05T00:25:34.674Z,103055.56
2023-01-05T00:28:02.689Z,103058.25
2023-01-05T00:30:43.935Z,103051.94
2023-01-05T00:33:12.855Z,103054.25
2023-01-05T00:35:40.810Z,103044.19
2023-01-05T00:38:10.989Z,103047.97
2023-01-05T00:40:39.646Z,103040.91
2023-01-05T00:43:09.204Z,103036.47
2023-01-05T00:45:36.869Z,103038.09
2023-01-05T00:48:04.951Z,103035.25
2023-01-05T00:50:32.620Z,103037.13
2023-01-05T00:53:02.661Z,103027.00
2023-01-05T00:55:33.403Z,103027.97
2023-01-05T00:58:02.091Z,103023.59
2023-01-05T01:00:29.752Z,103015.84
2023-01-05T01:02:59.536Z,103016.66
2023-01-05T01:05:27.147Z,103016.50
2023-01-05T01:07:57.525Z,103013.75
2023-01-05T01:10:28.813Z,103010.16
2023-01-05T01:12:57.670Z,103014.38
2023-01-05T01:15:31.679Z,103010.94
2023-01-05T01:17:59.284Z,103013.56
2023-01-05T01:20:29.436Z,103010.09
2023-01-05T01:23:00.101Z,103010.84
2023-01-05T01:25:31.182Z,102995.31
2023-01-05T01:28:01.937Z,103003.28
2023-01-05T01:30:30.233Z,103008.16
2023-01-05T01:33:00.100Z,103001.97
2023-01-05T01:35:28.103Z,102996.66
2023-01-05T01:37:56.736Z,103006.97
2023-01-05T01:40:24.163Z,103008.59
2023-01-05T01:42:52.459Z,103004.38
2023-01-05T01:45:20.837Z,103004.13
2023-01-05T01:47:51.163Z,103006.56
2023-01-05T01:50:39.886Z,103005.75
2023-01-05T01:53:10.786Z,102993.44
2023-01-05T01:55:41.725Z,102992.66
2023-01-05T01:58:13.980Z,102995.50
2023-01-05T02:00:42.131Z,102984.56
2023-01-05T02:03:09.845Z,102992.38
2023-01-05T02:05:40.675Z,102984.25
2023-01-05T02:08:13.663Z,102980.63
2023-01-05T02:10:41.318Z,102984.03
2023-01-05T02:13:35.569Z,102978.84
2023-01-05T02:16:04.844Z,102978.91
2023-01-05T02:18:41.861Z,102978.03
2023-01-05T02:21:19.423Z,102971.03
2023-01-05T02:23:53.409Z,102976.16
2023-01-05T02:26:20.974Z,102972.50
2023-01-05T02:28:51.179Z,102973.00
2023-01-05T02:31:22.727Z,102967.72
2023-01-05T02:33:55.618Z,102965.84
2023-01-05T02:36:28.897Z,102967.28
2023-01-05T02:39:15.501Z,102970.25
2023-01-05T02:41:48.798Z,102960.16
2023-01-05T02:44:18.727Z,102963.59
2023-01-05T02:47:19.569Z,102955.88
2023-01-05T02:49:47.115Z,102938.22
2023-01-05T02:52:15.914Z,102954.63
2023-01-05T02:54:53.277Z,102949.16
2023-01-05T02:57:47.225Z,102951.56
2023-01-05T03:00:22.304Z,102952.13
2023-01-05T03:02:54.992Z,102942.81
2023-01-05T03:05:33.092Z,102936.78
2023-01-05T03:08:11.453Z,102936.63
2023-01-05T03:11:30.000Z,102935.53
2023-01-05T03:14:16.183Z,102932.50
2023-01-05T03:16:48.960Z,102934.47
2023-01-05T03:19:39.834Z,102927.38
2023-01-05T03:22:31.602Z,102917.59
2023-01-05T03:25:17.982Z,102928.81
2023-01-05T03:28:06.103Z,102919.31
2023-01-05T03:31:04.152Z,102917.78
2023-01-05T03:34:03.189Z,102911.44
2023-01-05T03:36:34.188Z,102909.25
2023-01-05T03:39:03.472Z,102910.44
2023-01-05T03:41:34.465Z,102904.97
2023-01-05T03:44:02.270Z,102909.09
2023-01-05T03:46:33.396Z,102908.28
2023-01-05T03:49:00.768Z,102898.69
2023-01-05T03:51:28.400Z,102897.97
2023-01-05T03:53:55.788Z,102897.72
2023-01-05T03:56:23.114Z,102892.69
2023-01-05T03:58:54.768Z,102894.13
2023-01-05T04:01:23.154Z,102887.16
2023-01-05T04:03:50.848Z,102888.31
2023-01-05T04:06:18.772Z,102888.13
2023-01-05T04:08:48.890Z,102882.72
2023-01-05T04:11:20.474Z,102879.78
2023-01-05T04:14:01.107Z,102877.03
2023-01-05T04:16:29.198Z,102882.13
2023-01-05T04:19:02.495Z,102874.94
2023-01-05T04:21:29.646Z,102877.66
2023-01-05T04:23:57.519Z,102868.75
2023-01-05T04:26:25.202Z,102871.00
2023-01-05T04:28:57.342Z,102876.63
2023-01-05T04:31:26.479Z,102877.28
2023-01-05T04:33:56.351Z,102875.84
2023-01-05T04:36:30.380Z,102880.31
2023-01-05T04:39:04.667Z,102880.38
2023-01-05T04:41:32.922Z,102877.19
2023-01-05T04:44:00.228Z,102876.28
2023-01-05T04:46:29.199Z,102872.00
2023-01-05T04:48:59.629Z,102871.09
2023-01-05T04:51:29.771Z,102864.44
2023-01-05T04:53:58.073Z,102875.72
2023-01-05T04:56:25.871Z,102876.53
2023-01-05T04:58:53.128Z,102869.66
2023-01-05T05:01:20.786Z,102866.97
2023-01-05T05:03:52.972Z,102868.34
2023-01-05T05:06:24.451Z,102875.78
2023-01-05T05:08:56.307Z,102875.09
2023-01-05T05:11:26.043Z,102868.78
2023-01-05T05:13:54.341Z,102875.41
2023-01-05T05:16:24.201Z,102872.28
2023-01-05T05:18:55.836Z,102887.50
2023-01-05T05:21:26.647Z,102877.13
2023-01-05T05:23:56.720Z,102883.09
2023-01-05T05:26:27.234Z,102887.59
2023-01-05T05:28:55.327Z,102886.59
2023-01-05T05:31:22.995Z,102885.91
2023-01-05T05:33:50.535Z,102877.81
2023-01-05T05:36:23.831Z,102877.13
2023-01-05T05:38:51.448Z,102875.78
2023-01-05T05:41:18.814Z,102883.28
2023-01-05T05:43:46.255Z,102873.88
2023-01-05T05:46:13.811Z,102875.50
2023-01-05T05:48:41.604Z,102882.94
2023-01-05T05:51:09.276Z,102872.56
2023-01-05T05:53:36.626Z,102877.28
2023-01-05T05:56:03.860Z,102883.19
2023-01-05T05:58:31.492Z,102881.31
2023-01-05T06:01:00.052Z,102875.53
2023-01-05T06:03:30.618Z,102877.03
2023-01-05T06:05:58.852Z,102875.50
2023-01-05T06:08:30.136Z,102875.53
2023-01-05T06:10:59.128Z,102878.22
2023-01-05T06:13:26.683Z,102884.91
2023-01-05T06:15:56.822Z,102885.81
2023-01-05T06:18:25.315Z,102889.00
2023-01-05T06:20:59.481Z,102884.91
2023-01-05T06:23:29.495Z,102887.41
2023-01-05T06:25:56.829Z,102889.22
2023-01-05T06:28:26.830Z,102891.22
2023-01-05T06:30:54.658Z,102891.13
2023-01-05T06:33:25.596Z,102894.53
2023-01-05T06:35:53.170Z,102889.13
2023-01-05T06:38:24.600Z,102896.47
2023-01-05T06:40:55.489Z,102893.25
2023-01-05T06:43:24.991Z,102897.44
2023-01-05T06:45:53.330Z,102890.03
2023-01-05T06:48:23.651Z,102891.72
2023-01-05T06:50:54.447Z,102892.44
2023-01-05T06:53:21.634Z,102901.75
2023-01-05T06:55:49.372Z,102897.44
2023-01-05T06:58:22.555Z,102890.75
2023-01-05T07:00:49.794Z,102895.44
2023-01-05T07:03:19.542Z,102890.16
2023-01-05T07:05:52.016Z,102889.75
2023-01-05T07:08:21.508Z,102883.94
2023-01-05T07:10:48.533Z,102885.06
2023-01-05T07:13:15.646Z,102878.66
2023-01-05T07:15:42.910Z,102883.25
2023-01-05T07:18:12.964Z,102875.25
2023-01-05T07:20:42.507Z,102872.59
2023-01-05T07:23:12.642Z,102872.66
2023-01-05T07:25:40.063Z,102871.88
2023-01-05T07:28:07.106Z,102869.00
2023-01-05T07:30:40.015Z,102870.06
2023-01-05T07:33:10.037Z,102873.47
2023-01-05T07:35:47.202Z,102871.50
2023-01-05T07:38:14.350Z,102866.13
2023-01-05T07:40:44.779Z,102864.44
2023-01-05T07:43:14.504Z,102864.75
2023-01-05T07:45:46.916Z,102858.22
2023-01-05T07:48:23.425Z,102869.00
2023-01-05T07:50:52.436Z,102866.50
2023-01-05T07:53:21.922Z,102870.59
2023-01-05T07:56:06.691Z,102857.72
2023-01-05T07:58:45.481Z,102866.00
2023-01-05T08:01:24.110Z,102855.63
2023-01-05T08:03:51.442Z,102870.38
2023-01-05T08:06:22.199Z,102862.13
2023-01-05T08:08:56.117Z,102865.50
2023-01-05T08:11:23.164Z,102869.00
2023-01-05T08:14:08.554Z,102865.59
2023-01-05T08:16:35.913Z,102866.81
2023-01-05T08:19:07.779Z,102862.25
2023-01-05T08:21:40.963Z,102870.06
2023-01-05T08:24:08.326Z,102867.41
2023-01-05T08:26:37.045Z,102866.41
2023-01-05T08:29:08.964Z,102865.69
2023-01-05T08:31:40.300Z,102859.44
2023-01-05T08:34:19.339Z,102871.88
2023-01-05T08:36:46.942Z,102866.09
2023-01-05T08:39:16.192Z,102868.25
2023-01-05T08:41:43.582Z,102876.56
2023-01-05T08:44:14.184Z,102873.56
2023-01-05T08:46:41.225Z,102883.22
2023-01-05T08:49:09.976Z,102874.97
2023-01-05T08:51:37.245Z,102881.31
2023-01-05T08:54:04.363Z,102881.69
2023-01-05T08:56:37.998Z,102879.00
2023-01-05T08:59:14.758Z,102887.84
2023-01-05T09:01:42.239Z,102883.53
2023-01-05T09:04:09.359Z,102881.41
2023-01-05T09:06:38.811Z,102882.41
2023-01-05T09:09:08.563Z,102889.91
2023-01-05T09:11:38.337Z,102887.91
2023-01-05T09:14:05.468Z,102880.34
2023-01-05T09:19:20.764Z,102873.09
2023-01-05T09:21:50.329Z,102873.47
2023-01-05T09:24:23.019Z,102877.03
2023-01-05T09:26:50.945Z,102869.91
2023-01-05T09:29:20.526Z,102870.56
2023-01-05T09:31:51.435Z,102865.53
2023-01-05T09:34:19.447Z,102869.53
2023-01-05T09:36:46.456Z,102876.31
2023-01-05T09:39:15.473Z,102880.94
2023-01-05T09:41:45.953Z,102871.47
2023-01-05T09:44:35.921Z,102872.66
2023-01-05T09:47:05.441Z,102876.25
2023-01-05T09:49:36.845Z,102875.88
2023-01-05T09:52:09.578Z,102873.91
2023-01-05T09:54:37.937Z,102870.59
2023-01-05T09:57:09.651Z,102868.53
2023-01-05T09:59:45.457Z,102864.84
2023-01-05T10:02:33.334Z,102858.69
2023-01-05T10:05:01.683Z,102852.06
2023-01-05T10:07:36.467Z,102850.66
2023-01-05T10:10:06.407Z,102854.03
2023-01-05T10:13:04.021Z,102847.16
2023-01-05T10:15:42.523Z,102847.31
2023-01-05T10:18:11.430Z,102847.81
2023-01-05T10:21:04.881Z,102843.53
2023-01-05T10:23:31.975Z,102837.44
2023-01-05T10:26:02.576Z,102832.88
2023-01-05T10:28:51.904Z,102827.97
2023-01-05T10:31:24.148Z,102821.06
2023-01-05T10:33:56.951Z,102823.06
2023-01-05T10:36:58.078Z,102820.03
2023-01-05T10:39:41.272Z,102809.91
2023-01-05T10:42:27.769Z,102808.88
2023-01-05T10:45:20.217Z,102805.88
2023-01-05T10:47:48.946Z,102801.81
2023-01-05T10:50:19.299Z,102796.34
2023-01-05T10:52:46.804Z,102789.31
2023-01-05T10:55:16.652Z,102785.28
2023-01-05T10:57:43.975Z,102779.50
2023-01-05T11:00:18.741Z,102778.75
2023-01-05T11:02:58.177Z,102780.72
2023-01-05T11:05:40.263Z,102780.91
2023-01-05T11:08:32.469Z,102772.22
2023-01-05T11:11:04.688Z,102767.81
2023-01-05T11:13:48.066Z,102758.09
2023-01-05T11:16:27.658Z,102750.09
2023-01-05T11:19:00.296Z,102753.53
2023-01-05T11:21:36.126Z,102745.34
2023-01-05T11:24:04.124Z,102744.25
2023-01-05T11:26:38.367Z,102735.84
2023-01-05T11:29:11.959Z,102722.28
2023-01-05T11:31:43.410Z,102717.59
2023-01-05T11:34:29.886Z,102716.25
2023-01-05T11:37:02.579Z,102711.69
2023-01-05T11:39:46.818Z,102705.84
2023-01-05T11:42:28.162Z,102699.19
2023-01-05T11:45:00.728Z,102690.88
2023-01-05T11:47:32.776Z,102694.69
2023-01-05T11:50:09.747Z,102691.16
2023-01-05T11:52:42.336Z,102682.59
2023-01-05T11:55:24.336Z,102684.06
2023-01-05T11:57:59.384Z,102675.66
2023-01-05T12:00:28.815Z,102667.00
2023-01-05T12:03:11.543Z,102660.69
2023-01-05T12:05:53.468Z,102654.75
2023-01-05T12:08:46.900Z,102649.22
2023-01-05T12:11:25.843Z,102646.72
2023-01-05T12:14:10.472Z,102637.13
2023-01-05T12:16:55.783Z,102632.03
2023-01-05T12:19:40.320Z,102628.25
2023-01-05T12:22:14.484Z,102623.81
2023-01-05T12:25:01.318Z,102624.38
2023-01-05T12:27:34.452Z,102620.72
2023-01-05T12:34:01.797Z,102598.75
2023-01-05T12:36:33.244Z,102599.75
2023-01-05T12:39:25.746Z,102589.78
2023-01-05T12:42:09.363Z,102589.13
2023-01-05T12:47:51.645Z,102581.50
2023-01-05T12:50:34.505Z,102577.78
2023-01-05T12:53:18.740Z,102572.13
2023-01-05T12:56:20.284Z,102577.41
2023-01-05T12:59:07.662Z,102568.41
2023-01-05T13:01:46.872Z,102560.25
2023-01-05T13:04:38.989Z,102563.09
2023-01-05T13:07:15.249Z,102555.88
2023-01-05T13:09:50.084Z,102560.31
2023-01-05T13:12:17.207Z,102553.84
2023-01-05T13:15:06.763Z,102550.03
2023-01-05T13:17:35.161Z,102544.63
2023-01-05T13:20:26.079Z,102538.69
2023-01-05T13:22:59.048Z,102544.50
2023-01-05T13:25:28.644Z,102540.06
2023-01-05T13:27:58.474Z,102539.19
2023-01-05T13:30:37.088Z,102537.47
2023-01-05T13:33:09.980Z,102532.03
2023-01-05T13:36:01.062Z,102528.66
2023-01-05T13:38:37.218Z,102518.81
2023-01-05T13:41:24.703Z,102511.78
2023-01-05T13:44:10.461Z,102515.47
2023-01-05T13:46:41.556Z,102503.75
2023-01-05T13:49:09.435Z,102511.06
2023-01-05T13:51:54.973Z,102499.97
2023-01-05T13:55:01.558Z,102496.41
2023-01-05T13:57:36.158Z,102484.81
2023-01-05T14:00:11.942Z,102484.78
2023-01-05T14:02:45.041Z,102480.28
2023-01-05T14:05:32.388Z,102487.47
2023-01-05T14:08:01.675Z,102479.88
2023-01-05T14:10:34.946Z,102490.94
2023-01-05T14:13:07.543Z,102473.19
2023-01-05T14:15:41.707Z,102471.53
2023-01-05T14:18:28.923Z,102473.38
2023-01-05T14:20:58.988Z,102479.19
2023-01-05T14:23:25.960Z,102479.78
2023-01-05T14:25:57.567Z,102475.00
2023-01-05T14:28:30.666Z,102469.69
2023-01-05T14:31:19.269Z,102468.00
2023-01-05T14:33:54.043Z,102471.56
2023-01-05T14:36:26.466Z,102474.88
2023-01-05T14:38:57.251Z,102478.28
2023-01-05T14:41:32.362Z,102470.72
2023-01-05T14:44:17.877Z,102477.75
2023-01-05T14:46:49.053Z,102477.91
2023-01-05T14:49:26.850Z,102479.66
2023-01-05T14:52:00.979Z,102467.34
2023-01-05T14:54:43.079Z,102471.88
2023-01-05T14:57:28.406Z,102481.31
2023-01-05T15:00:07.975Z,102470.78
2023-01-05T15:02:45.236Z,102469.03
2023-01-05T15:05:16.938Z,102472.47
2023-01-05T15:07:55.656Z,102467.28
2023-01-05T15:10:38.478Z,102473.44
2023-01-05T15:13:29.113Z,102463.69
2023-01-05T15:22:37.670Z,102466.31
2023-01-05T15:25:12.033Z,102468.00
2023-01-05T15:27:40.366Z,102471.69
2023-01-05T15:30:25.936Z,102466.72
2023-01-05T15:33:16.855Z,102488.78
2023-01-05T15:35:47.917Z,102469.25
2023-01-05T15:38:42.348Z,102475.03
2023-01-05T15:41:18.878Z,102474.75
2023-01-05T15:43:48.943Z,102472.72
2023-01-05T15:46:26.132Z,102472.53
2023-01-05T15:48:55.784Z,102470.53
2023-01-05T15:51:31.118Z,102490.63
2023-01-05T15:54:09.395Z,102471.84
2023-01-05T15:56:41.006Z,102480.84
2023-01-05T15:59:29.717Z,102487.25
2023-01-05T16:01:59.833Z,102480.53
2023-01-05T16:04:30.453Z,102475.34
2023-01-05T16:06:59.173Z,102472.81
2023-01-05T16:09:35.897Z,102478.97
2023-01-05T16:12:33.976Z,102480.22
2023-01-05T16:15:06.310Z,102476.53
2023-01-05T16:17:36.662Z,102471.66
2023-01-05T16:20:15.905Z,102472.41
2023-01-05T16:23:08.957Z,102473.28
2023-01-05T16:25:43.453Z,102464.47
2023-01-05T16:28:21.640Z,102480.09
2023-01-05T16:30:53.394Z,102474.16
2023-01-05T16:33:39.691Z,102474.41
2023-01-05T16:36:27.677Z,102475.81
2023-01-05T16:39:17.912Z,102478.63
2023-01-05T16:42:08.969Z,102469.84
2023-01-05T16:44:50.590Z,102470.50
2023-01-05T16:47:36.499Z,102473.94
2023-01-05T16:50:53.110Z,102470.19
2023-01-05T16:53:28.605Z,102473.81
2023-01-05T16:56:00.775Z,102473.97
2023-01-05T16:58:35.214Z,102467.75
2023-01-05T17:01:36.408Z,102463.91
2023-01-05T17:04:13.564Z,102458.38
2023-01-05T17:06:48.466Z,102461.47
2023-01-05T17:09:25.817Z,102466.66
2023-01-05T17:11:53.412Z,102460.63
2023-01-05T17:14:21.908Z,102465.31
2023-01-05T17:16:51.432Z,102456.91
2023-01-05T17:19:22.132Z,102470.97
2023-01-05T17:21:58.412Z,102469.06
2023-01-05T17:24:31.675Z,102464.31
2023-01-05T17:27:01.724Z,102471.53
2023-01-05T17:29:33.186Z,102460.44
2023-01-05T17:32:02.726Z,102459.44
2023-01-05T17:34:32.708Z,102456.63
2023-01-05T17:37:05.803Z,102450.16
2023-01-05T17:39:35.199Z,102455.50
2023-01-05T17:42:23.734Z,102461.94
2023-01-05T17:45:00.535Z,102454.28
2023-01-05T17:47:30.368Z,102467.56
2023-01-05T17:55:36.939Z,102466.59
2023-01-05T17:58:07.917Z,102465.00
2023-01-05T18:03:29.016Z,102465.56
2023-01-05T18:06:09.704Z,102464.13
2023-01-05T18:11:31.857Z,102466.91
2023-01-05T18:14:11.259Z,102472.81
2023-01-05T18:16:56.648Z,102465.88
2023-01-05T18:19:35.416Z,102466.38
2023-01-05T18:22:08.447Z,102463.09
2023-01-05T18:27:26.652Z,102469.13
2023-01-05T18:30:07.579Z,102465.56
2023-01-05T18:32:40.274Z,102472.34
2023-01-05T18:38:08.342Z,102463.38
2023-01-05T18:40:40.024Z,102462.72
2023-01-05T18:43:18.858Z,102461.75
2023-01-05T18:45:46.195Z,102464.22
2023-01-05T18:48:14.566Z,102463.91
2023-01-05T18:50:43.338Z,102472.84
2023-01-05T18:53:10.879Z,102469.00
2023-01-05T18:55:40.297Z,102466.47
2023-01-05T18:58:11.278Z,102464.09
2023-01-05T19:00:45.117Z,102467.41
2023-01-05T19:03:12.241Z,102467.50
2023-01-05T19:05:41.033Z,102472.00
2023-01-05T19:08:11.913Z,102476.53
2023-01-05T19:10:39.085Z,102476.47
2023-01-05T19:13:07.174Z,102479.88
2023-01-05T19:15:37.336Z,102469.47
2023-01-05T19:18:05.372Z,102466.75
2023-01-05T19:20:35.692Z,102464.97
2023-01-05T19:23:05.981Z,102464.91
2023-01-05T19:25:33.331Z,102468.44
2023-01-05T19:28:03.184Z,102482.06
2023-01-05T19:30:33.561Z,102467.09
2023-01-05T19:33:02.458Z,102468.16
2023-01-05T19:35:31.292Z,102470.50
2023-01-05T19:38:00.593Z,102475.69
2023-01-05T19:40:27.708Z,102467.59
2023-01-05T19:42:57.954Z,102471.91
2023-01-05T19:45:28.196Z,102465.81
2023-01-05T19:47:56.459Z,102463.94
2023-01-05T19:50:23.474Z,102464.75
2023-01-05T19:52:50.567Z,102460.31
2023-01-05T19:55:17.531Z,102459.31
2023-01-05T19:57:44.480Z,102473.81
2023-01-05T20:00:13.312Z,102471.13
2023-01-05T20:02:42.505Z,102472.72
2023-01-05T20:05:14.207Z,102478.78
2023-01-05T20:07:43.211Z,102472.47
2023-01-05T20:10:15.012Z,102469.84
2023-01-05T20:12:42.092Z,102473.22
2023-01-05T20:15:09.439Z,102470.53
2023-01-05T20:17:36.550Z,102469.50
2023-01-05T20:20:07.286Z,102472.03
2023-01-05T20:22:34.485Z,102467.53
2023-01-05T20:25:01.469Z,102459.53
2023-01-05T20:27:28.411Z,102454.16
2023-01-05T20:29:55.904Z,102461.13
2023-01-05T20:32:25.505Z,102463.38
2023-01-05T20:34:55.418Z,102459.22
2023-01-05T20:37:26.670Z,102466.97
2023-01-05T20:39:57.641Z,102466.91
2023-01-05T20:42:24.865Z,102470.31
2023-01-05T20:44:54.997Z,102466.72
2023-01-05T20:47:25.484Z,102472.19
2023-01-05T20:49:53.503Z,102467.81
2023-01-05T20:52:20.480Z,102467.88
2023-01-05T20:54:48.867Z,102466.88
2023-01-05T20:57:15.832Z,102463.34
2023-01-05T20:59:43.438Z,102464.06
2023-01-05T21:02:22.386Z,102467.50
2023-01-05T21:04:51.173Z,102456.94
2023-01-05T21:07:18.491Z,102456.84
2023-01-05T21:09:45.500Z,102452.25
2023-01-05T21:12:12.529Z,102449.56
2023-01-05T21:14:39.576Z,102452.94
2023-01-05T21:17:06.964Z,102455.38
2023-01-05T21:19:34.142Z,102450.88
2023-01-05T21:22:01.206Z,102449.91
2023-01-05T21:24:31.300Z,102450.66
2023-01-05T21:27:01.457Z,102448.88
2023-01-05T21:29:29.256Z,102444.34
2023-01-05T21:31:56.432Z,102448.00
2023-01-05T21:34:23.959Z,102436.97
2023-01-05T21:36:54.310Z,102444.91
2023-01-05T21:39:22.497Z,102445.69
2023-01-05T21:42:09.575Z,102436.31
2023-01-05T21:44:39.993Z,102444.69
2023-01-05T21:47:07.307Z,102447.31
2023-01-05T21:49:35.159Z,102435.97
2023-01-05T21:52:20.790Z,102441.81
2023-01-05T21:55:06.409Z,102443.72
2023-01-05T21:57:33.452Z,102440.22
2023-01-05T22:00:00.526Z,102451.38
2023-01-05T22:02:27.537Z,102450.16
2023-01-05T22:04:54.571Z,102449.91
2023-01-05T22:07:21.621Z,102449.09
2023-01-05T22:09:48.673Z,102447.91
2023-01-05T22:12:15.702Z,102446.25
2023-01-05T22:14:42.760Z,102438.19
2023-01-05T22:17:10.660Z,102432.72
2023-01-05T22:19:38.685Z,102437.81
2023-01-05T22:22:05.758Z,102432.66
2023-01-05T22:24:32.706Z,102436.03
2023-01-05T22:27:01.965Z,102441.03
2023-01-05T22:29:28.954Z,102451.22
2023-01-05T22:31:56.237Z,102442.94
2023-01-05T22:34:23.414Z,102443.88
2023-01-05T22:36:51.576Z,102446.72
2023-01-05T22:39:18.590Z,102448.53
2023-01-05T22:41:46.689Z,102456.91
2023-01-05T22:44:13.984Z,102453.72
2023-01-05T22:46:41.424Z,102458.94
2023-01-05T22:49:12.439Z,102457.22
2023-01-05T22:51:41.513Z,102454.66
2023-01-05T22:54:13.514Z,102464.19
2023-01-05T22:56:40.561Z,102450.81
2023-01-05T22:59:07.729Z,102448.44
2023-01-05T23:01:36.519Z,102449.03
2023-01-05T23:04:05.902Z,102448.31
2023-01-05T23:06:33.933Z,102446.66
2023-01-05T23:09:02.476Z,102447.31
2023-01-05T23:11:31.181Z,102432.09
2023-01-05T23:14:02.032Z,102429.34
2023-01-05T23:16:36.016Z,102434.34
2023-01-05T23:19:05.160Z,102426.59
2023-01-05T23:21:34.650Z,102437.16
2023-01-05T23:24:02.102Z,102429.34
2023-01-05T23:26:30.726Z,102424.66
2023-01-05T23:28:58.661Z,102415.06
2023-01-05T23:31:28.773Z,102419.41
2023-01-05T23:33:57.137Z,102414.94
2023-01-05T23:36:25.000Z,102413.88
2023-01-05T23:38:52.497Z,102410.03
2023-01-05T23:41:20.459Z,102410.91
2023-01-05T23:43:48.273Z,102417.53
2023-01-05T23:46:17.497Z,102407.88
2023-01-05T23:48:45.028Z,102405.22
2023-01-05T23:51:17.509Z,102407.00
2023-01-05T23:53:46.623Z,102407.75
2023-01-05T23:56:15.294Z,102405.16
2023-01-05T23:58:43.450Z,102408.72
